sensor_id;sensor_type;location;lat;lon;timestamp;temperature;humidity
69589;SHT31;56792;50.644;17.984;2023-02-28T00:00:49;0.40;66.67
69589;SHT31;56792;50.644;17.984;2023-02-28T00:03:21;0.40;66.87
69589;SHT31;56792;50.644;17.984;2023-02-28T00:05:54;0.40;67.28
69589;SHT31;56792;50.644;17.984;2023-02-28T00:08:26;0.41;67.15
69589;SHT31;56792;50.644;17.984;2023-02-28T00:11:01;0.42;67.04
69589;SHT31;56792;50.644;17.984;2023-02-28T00:13:35;0.43;67.00
69589;SHT31;56792;50.644;17.984;2023-02-28T00:16:15;0.41;67.02
69589;SHT31;56792;50.644;17.984;2023-02-28T00:18:49;0.42;67.23
69589;SHT31;56792;50.644;17.984;2023-02-28T00:21:22;0.41;67.18
69589;SHT31;56792;50.644;17.984;2023-02-28T00:23:54;0.40;67.05
69589;SHT31;56792;50.644;17.984;2023-02-28T00:26:27;0.40;66.63
69589;SHT31;56792;50.644;17.984;2023-02-28T00:28:59;0.39;66.98
69589;SHT31;56792;50.644;17.984;2023-02-28T00:31:31;0.37;66.99
69589;SHT31;56792;50.644;17.984;2023-02-28T00:34:04;0.37;67.20
69589;SHT31;56792;50.644;17.984;2023-02-28T00:36:36;0.37;67.13
69589;SHT31;56792;50.644;17.984;2023-02-28T00:39:12;0.36;67.33
69589;SHT31;56792;50.644;17.984;2023-02-28T00:41:44;0.34;67.10
69589;SHT31;56792;50.644;17.984;2023-02-28T00:44:17;0.33;67.06
69589;SHT31;56792;50.644;17.984;2023-02-28T00:46:49;0.34;66.90
69589;SHT31;56792;50.644;17.984;2023-02-28T00:49:25;0.35;66.73
69589;SHT31;56792;50.644;17.984;2023-02-28T00:51:57;0.34;66.72
69589;SHT31;56792;50.644;17.984;2023-02-28T00:54:30;0.30;66.67
69589;SHT31;56792;50.644;17.984;2023-02-28T00:57:02;0.28;66.56
69589;SHT31;56792;50.644;17.984;2023-02-28T00:59:35;0.27;66.53
69589;SHT31;56792;50.644;17.984;2023-02-28T01:02:07;0.27;66.58
69589;SHT31;56792;50.644;17.984;2023-02-28T01:04:39;0.26;66.59
69589;SHT31;56792;50.644;17.984;2023-02-28T01:07:11;0.25;66.71
69589;SHT31;56792;50.644;17.984;2023-02-28T01:09:43;0.24;66.60
69589;SHT31;56792;50.644;17.984;2023-02-28T01:12:16;0.21;66.33
69589;SHT31;56792;50.644;17.984;2023-02-28T01:14:48;0.20;66.59
69589;SHT31;56792;50.644;17.984;2023-02-28T01:17:22;0.19;66.74
69589;SHT31;56792;50.644;17.984;2023-02-28T01:19:55;0.17;66.72
69589;SHT31;56792;50.644;17.984;2023-02-28T01:22:27;0.14;66.59
69589;SHT31;56792;50.644;17.984;2023-02-28T01:24:59;0.12;66.71
69589;SHT31;56792;50.644;17.984;2023-02-28T01:27:32;0.09;66.76
69589;SHT31;56792;50.644;17.984;2023-02-28T01:30:07;0.05;66.93
69589;SHT31;56792;50.644;17.984;2023-02-28T01:32:41;0.01;66.91
69589;SHT31;56792;50.644;17.984;2023-02-28T01:35:13;-0.03;66.58
69589;SHT31;56792;50.644;17.984;2023-02-28T01:37:45;-0.05;66.65
69589;SHT31;56792;50.644;17.984;2023-02-28T01:40:19;-0.14;66.60
69589;SHT31;56792;50.644;17.984;2023-02-28T01:42:51;-0.22;66.56
69589;SHT31;56792;50.644;17.984;2023-02-28T01:45:25;-0.30;66.49
69589;SHT31;56792;50.644;17.984;2023-02-28T01:48:04;-0.37;66.27
69589;SHT31;56792;50.644;17.984;2023-02-28T01:50:40;-0.43;66.18
69589;SHT31;56792;50.644;17.984;2023-02-28T01:53:16;-0.49;65.96
69589;SHT31;56792;50.644;17.984;2023-02-28T01:55:54;-0.56;66.14
69589;SHT31;56792;50.644;17.984;2023-02-28T01:58:27;-0.63;66.51
69589;SHT31;56792;50.644;17.984;2023-02-28T02:00:59;-0.69;66.64
69589;SHT31;56792;50.644;17.984;2023-02-28T02:03:33;-0.76;66.62
69589;SHT31;56792;50.644;17.984;2023-02-28T02:06:07;-0.83;66.68
69589;SHT31;56792;50.644;17.984;2023-02-28T02:08:39;-0.91;66.70
69589;SHT31;56792;50.644;17.984;2023-02-28T02:11:11;-0.96;66.88
69589;SHT31;56792;50.644;17.984;2023-02-28T02:13:55;-1.04;67.22
69589;SHT31;56792;50.644;17.984;2023-02-28T02:16:55;-1.13;67.32
69589;SHT31;56792;50.644;17.984;2023-02-28T02:19:51;-1.20;67.71
69589;SHT31;56792;50.644;17.984;2023-02-28T02:32:47;-1.53;68.21
69589;SHT31;56792;50.644;17.984;2023-02-28T02:35:57;-1.64;68.70
69589;SHT31;56792;50.644;17.984;2023-02-28T02:38:37;-1.71;69.17
69589;SHT31;56792;50.644;17.984;2023-02-28T02:41:22;-1.76;69.49
69589;SHT31;56792;50.644;17.984;2023-02-28T02:44:06;-1.80;69.55
69589;SHT31;56792;50.644;17.984;2023-02-28T02:46:51;-1.84;69.64
69589;SHT31;56792;50.644;17.984;2023-02-28T02:49:31;-1.89;69.65
69589;SHT31;56792;50.644;17.984;2023-02-28T02:52:08;-1.96;69.65
69589;SHT31;56792;50.644;17.984;2023-02-28T02:54:48;-2.02;69.67
69589;SHT31;56792;50.644;17.984;2023-02-28T02:57:25;-2.07;69.78
69589;SHT31;56792;50.644;17.984;2023-02-28T03:00:05;-2.13;69.86
69589;SHT31;56792;50.644;17.984;2023-02-28T03:02:41;-2.18;69.93
69589;SHT31;56792;50.644;17.984;2023-02-28T03:05:18;-2.23;70.02
69589;SHT31;56792;50.644;17.984;2023-02-28T03:07:57;-2.27;70.11
69589;SHT31;56792;50.644;17.984;2023-02-28T03:10:34;-2.32;70.26
69589;SHT31;56792;50.644;17.984;2023-02-28T03:13:26;-2.38;70.35
69589;SHT31;56792;50.644;17.984;2023-02-28T03:16:49;-2.47;70.50
69589;SHT31;56792;50.644;17.984;2023-02-28T03:19:50;-2.54;70.50
69589;SHT31;56792;50.644;17.984;2023-02-28T03:22:40;-2.57;70.58
69589;SHT31;56792;50.644;17.984;2023-02-28T03:25:27;-2.60;70.79
69589;SHT31;56792;50.644;17.984;2023-02-28T03:28:08;-2.62;70.76
69589;SHT31;56792;50.644;17.984;2023-02-28T03:30:47;-2.64;70.76
69589;SHT31;56792;50.644;17.984;2023-02-28T03:33:26;-2.67;70.97
69589;SHT31;56792;50.644;17.984;2023-02-28T03:36:04;-2.72;71.00
69589;SHT31;56792;50.644;17.984;2023-02-28T03:38:42;-2.74;70.99
69589;SHT31;56792;50.644;17.984;2023-02-28T03:41:20;-2.77;71.16
69589;SHT31;56792;50.644;17.984;2023-02-28T03:43:58;-2.78;71.24
69589;SHT31;56792;50.644;17.984;2023-02-28T03:46:38;-2.81;71.04
69589;SHT31;56792;50.644;17.984;2023-02-28T03:49:18;-2.84;71.03
69589;SHT31;56792;50.644;17.984;2023-02-28T03:51:57;-2.88;71.10
69589;SHT31;56792;50.644;17.984;2023-02-28T03:54:35;-2.92;71.28
69589;SHT31;56792;50.644;17.984;2023-02-28T03:57:15;-2.95;71.54
69589;SHT31;56792;50.644;17.984;2023-02-28T03:59:56;-2.97;71.69
69589;SHT31;56792;50.644;17.984;2023-02-28T04:02:39;-3.00;71.82
69589;SHT31;56792;50.644;17.984;2023-02-28T04:05:11;-3.03;71.90
69589;SHT31;56792;50.644;17.984;2023-02-28T04:07:44;-3.05;71.93
69589;SHT31;56792;50.644;17.984;2023-02-28T04:10:16;-3.08;72.02
69589;SHT31;56792;50.644;17.984;2023-02-28T04:12:49;-3.09;72.15
69589;SHT31;56792;50.644;17.984;2023-02-28T04:15:22;-3.11;72.15
69589;SHT31;56792;50.644;17.984;2023-02-28T04:17:54;-3.12;72.21
69589;SHT31;56792;50.644;17.984;2023-02-28T04:20:27;-3.14;72.24
69589;SHT31;56792;50.644;17.984;2023-02-28T04:22:59;-3.15;72.17
69589;SHT31;56792;50.644;17.984;2023-02-28T04:25:31;-3.18;72.29
69589;SHT31;56792;50.644;17.984;2023-02-28T04:28:03;-3.21;72.30
69589;SHT31;56792;50.644;17.984;2023-02-28T04:30:36;-3.24;72.26
69589;SHT31;56792;50.644;17.984;2023-02-28T04:33:09;-3.28;72.15
69589;SHT31;56792;50.644;17.984;2023-02-28T04:35:41;-3.33;72.19
69589;SHT31;56792;50.644;17.984;2023-02-28T04:38:13;-3.37;72.25
69589;SHT31;56792;50.644;17.984;2023-02-28T04:40:46;-3.38;72.39
69589;SHT31;56792;50.644;17.984;2023-02-28T04:43:18;-3.39;72.50
69589;SHT31;56792;50.644;17.984;2023-02-28T04:45:51;-3.40;72.64
69589;SHT31;56792;50.644;17.984;2023-02-28T04:48:24;-3.42;72.75
69589;SHT31;56792;50.644;17.984;2023-02-28T04:51:01;-3.46;72.78
69589;SHT31;56792;50.644;17.984;2023-02-28T04:53:36;-3.49;72.80
69589;SHT31;56792;50.644;17.984;2023-02-28T04:56:11;-3.52;72.88
69589;SHT31;56792;50.644;17.984;2023-02-28T04:58:47;-3.52;72.89
69589;SHT31;56792;50.644;17.984;2023-02-28T05:01:23;-3.53;73.00
69589;SHT31;56792;50.644;17.984;2023-02-28T05:03:58;-3.56;73.07
69589;SHT31;56792;50.644;17.984;2023-02-28T05:06:33;-3.56;73.16
69589;SHT31;56792;50.644;17.984;2023-02-28T05:09:05;-3.58;73.06
69589;SHT31;56792;50.644;17.984;2023-02-28T05:11:39;-3.60;73.06
69589;SHT31;56792;50.644;17.984;2023-02-28T05:14:12;-3.62;73.19
69589;SHT31;56792;50.644;17.984;2023-02-28T05:16:45;-3.64;73.61
69589;SHT31;56792;50.644;17.984;2023-02-28T05:19:17;-3.68;74.10
69589;SHT31;56792;50.644;17.984;2023-02-28T05:21:51;-3.71;74.13
69589;SHT31;56792;50.644;17.984;2023-02-28T05:24:25;-3.74;74.14
69589;SHT31;56792;50.644;17.984;2023-02-28T05:26:57;-3.77;74.10
69589;SHT31;56792;50.644;17.984;2023-02-28T05:29:30;-3.80;74.22
69589;SHT31;56792;50.644;17.984;2023-02-28T05:32:11;-3.81;74.46
69589;SHT31;56792;50.644;17.984;2023-02-28T05:34:43;-3.83;74.63
69589;SHT31;56792;50.644;17.984;2023-02-28T05:37:16;-3.86;74.79
69589;SHT31;56792;50.644;17.984;2023-02-28T05:39:48;-3.87;74.83
69589;SHT31;56792;50.644;17.984;2023-02-28T05:42:20;-3.88;74.71
69589;SHT31;56792;50.644;17.984;2023-02-28T05:44:52;-3.89;74.68
69589;SHT31;56792;50.644;17.984;2023-02-28T05:47:26;-3.88;74.84
69589;SHT31;56792;50.644;17.984;2023-02-28T05:50:04;-3.91;74.87
69589;SHT31;56792;50.644;17.984;2023-02-28T05:52:39;-3.93;74.87
69589;SHT31;56792;50.644;17.984;2023-02-28T05:55:12;-3.93;75.03
69589;SHT31;56792;50.644;17.984;2023-02-28T05:57:45;-3.91;75.08
69589;SHT31;56792;50.644;17.984;2023-02-28T06:00:18;-3.91;75.11
69589;SHT31;56792;50.644;17.984;2023-02-28T06:02:51;-3.89;75.19
69589;SHT31;56792;50.644;17.984;2023-02-28T06:05:26;-3.88;75.10
69589;SHT31;56792;50.644;17.984;2023-02-28T06:07:59;-3.88;75.06
69589;SHT31;56792;50.644;17.984;2023-02-28T06:10:34;-3.85;75.16
69589;SHT31;56792;50.644;17.984;2023-02-28T06:13:06;-3.81;75.19
69589;SHT31;56792;50.644;17.984;2023-02-28T06:15:39;-3.76;75.27
69589;SHT31;56792;50.644;17.984;2023-02-28T06:18:12;-3.72;75.13
69589;SHT31;56792;50.644;17.984;2023-02-28T06:20:44;-3.67;75.21
69589;SHT31;56792;50.644;17.984;2023-02-28T06:23:22;-3.64;75.40
69589;SHT31;56792;50.644;17.984;2023-02-28T06:25:55;-3.59;75.58
69589;SHT31;56792;50.644;17.984;2023-02-28T06:28:27;-3.51;75.69
69589;SHT31;56792;50.644;17.984;2023-02-28T06:30:59;-3.43;75.62
69589;SHT31;56792;50.644;17.984;2023-02-28T06:33:36;-3.35;75.60
69589;SHT31;56792;50.644;17.984;2023-02-28T06:36:11;-3.26;75.60
69589;SHT31;56792;50.644;17.984;2023-02-28T06:38:44;-3.19;75.54
69589;SHT31;56792;50.644;17.984;2023-02-28T06:41:22;-3.11;75.48
69589;SHT31;56792;50.644;17.984;2023-02-28T06:43:55;-2.99;75.30
69589;SHT31;56792;50.644;17.984;2023-02-28T06:46:27;-2.80;75.11
69589;SHT31;56792;50.644;17.984;2023-02-28T06:49:00;-2.53;74.86
69589;SHT31;56792;50.644;17.984;2023-02-28T06:51:35;-2.18;74.46
69589;SHT31;56792;50.644;17.984;2023-02-28T06:54:12;-1.85;73.89
69589;SHT31;56792;50.644;17.984;2023-02-28T06:56:44;-1.49;73.48
69589;SHT31;56792;50.644;17.984;2023-02-28T06:59:16;-1.12;72.93
69589;SHT31;56792;50.644;17.984;2023-02-28T07:01:51;-0.75;72.49
69589;SHT31;56792;50.644;17.984;2023-02-28T07:04:24;-0.40;71.55
69589;SHT31;56792;50.644;17.984;2023-02-28T07:06:58;-0.04;70.67
69589;SHT31;56792;50.644;17.984;2023-02-28T07:09:31;0.30;69.86
69589;SHT31;56792;50.644;17.984;2023-02-28T07:12:03;0.61;69.09
69589;SHT31;56792;50.644;17.984;2023-02-28T07:14:38;0.97;68.62
69589;SHT31;56792;50.644;17.984;2023-02-28T07:17:10;1.34;68.23
69589;SHT31;56792;50.644;17.984;2023-02-28T07:19:43;1.68;67.06
69589;SHT31;56792;50.644;17.984;2023-02-28T07:22:16;1.97;65.86
69589;SHT31;56792;50.644;17.984;2023-02-28T07:24:49;2.29;65.24
69589;SHT31;56792;50.644;17.984;2023-02-28T07:27:21;2.59;64.75
69589;SHT31;56792;50.644;17.984;2023-02-28T07:29:53;2.92;63.79
69589;SHT31;56792;50.644;17.984;2023-02-28T07:32:28;3.21;62.50
69589;SHT31;56792;50.644;17.984;2023-02-28T07:35:05;3.52;62.27
69589;SHT31;56792;50.644;17.984;2023-02-28T07:37:39;3.82;60.32
69589;SHT31;56792;50.644;17.984;2023-02-28T07:40:14;4.05;59.66
69589;SHT31;56792;50.644;17.984;2023-02-28T07:42:47;4.34;59.07
69589;SHT31;56792;50.644;17.984;2023-02-28T07:45:19;4.61;58.57
69589;SHT31;56792;50.644;17.984;2023-02-28T07:47:51;4.88;57.92
69589;SHT31;56792;50.644;17.984;2023-02-28T07:50:23;5.16;57.31
69589;SHT31;56792;50.644;17.984;2023-02-28T07:52:57;5.37;56.05
69589;SHT31;56792;50.644;17.984;2023-02-28T07:55:30;5.62;55.70
69589;SHT31;56792;50.644;17.984;2023-02-28T07:58:02;5.86;54.68
69589;SHT31;56792;50.644;17.984;2023-02-28T08:00:34;6.05;53.93
69589;SHT31;56792;50.644;17.984;2023-02-28T08:03:08;6.26;53.23
69589;SHT31;56792;50.644;17.984;2023-02-28T08:05:43;6.46;52.51
69589;SHT31;56792;50.644;17.984;2023-02-28T08:08:16;6.62;51.94
69589;SHT31;56792;50.644;17.984;2023-02-28T08:10:48;6.83;51.97
69589;SHT31;56792;50.644;17.984;2023-02-28T08:13:20;7.04;51.42
69589;SHT31;56792;50.644;17.984;2023-02-28T08:15:54;7.23;50.74
69589;SHT31;56792;50.644;17.984;2023-02-28T08:18:26;7.43;50.08
69589;SHT31;56792;50.644;17.984;2023-02-28T08:20:58;7.55;48.56
69589;SHT31;56792;50.644;17.984;2023-02-28T08:23:36;7.67;48.43
69589;SHT31;56792;50.644;17.984;2023-02-28T08:26:08;7.72;47.34
69589;SHT31;56792;50.644;17.984;2023-02-28T08:28:41;7.77;46.96
69589;SHT31;56792;50.644;17.984;2023-02-28T08:31:15;7.83;45.88
69589;SHT31;56792;50.644;17.984;2023-02-28T08:33:49;7.88;45.09
69589;SHT31;56792;50.644;17.984;2023-02-28T08:36:25;7.91;44.61
69589;SHT31;56792;50.644;17.984;2023-02-28T08:38:58;8.03;46.17
69589;SHT31;56792;50.644;17.984;2023-02-28T08:41:31;8.22;45.67
69589;SHT31;56792;50.644;17.984;2023-02-28T08:44:04;8.36;44.93
69589;SHT31;56792;50.644;17.984;2023-02-28T08:46:36;8.41;44.96
69589;SHT31;56792;50.644;17.984;2023-02-28T08:49:09;8.56;44.82
69589;SHT31;56792;50.644;17.984;2023-02-28T08:51:42;8.70;44.55
69589;SHT31;56792;50.644;17.984;2023-02-28T08:54:15;8.74;42.35
69589;SHT31;56792;50.644;17.984;2023-02-28T08:56:47;8.72;42.88
69589;SHT31;56792;50.644;17.984;2023-02-28T08:59:19;8.94;42.25
69589;SHT31;56792;50.644;17.984;2023-02-28T09:01:51;9.10;41.35
69589;SHT31;56792;50.644;17.984;2023-02-28T09:04:23;9.46;40.61
69589;SHT31;56792;50.644;17.984;2023-02-28T09:06:57;9.99;40.75
69589;SHT31;56792;50.644;17.984;2023-02-28T09:09:30;10.60;39.92
69589;SHT31;56792;50.644;17.984;2023-02-28T09:12:03;11.19;38.44
69589;SHT31;56792;50.644;17.984;2023-02-28T09:14:36;11.80;37.30
69589;SHT31;56792;50.644;17.984;2023-02-28T09:17:08;12.85;35.48
69589;SHT31;56792;50.644;17.984;2023-02-28T09:19:40;13.96;34.79
69589;SHT31;56792;50.644;17.984;2023-02-28T09:22:13;14.99;31.90
69589;SHT31;56792;50.644;17.984;2023-02-28T09:24:46;15.52;29.96
69589;SHT31;56792;50.644;17.984;2023-02-28T09:27:20;16.27;30.90
69589;SHT31;56792;50.644;17.984;2023-02-28T09:29:52;17.23;30.16
69589;SHT31;56792;50.644;17.984;2023-02-28T09:32:24;17.69;27.09
69589;SHT31;56792;50.644;17.984;2023-02-28T09:34:56;18.26;27.69
69589;SHT31;56792;50.644;17.984;2023-02-28T09:37:29;18.83;26.31
69589;SHT31;56792;50.644;17.984;2023-02-28T09:40:01;19.22;25.85
69589;SHT31;56792;50.644;17.984;2023-02-28T09:42:36;19.82;26.39
69589;SHT31;56792;50.644;17.984;2023-02-28T09:45:13;20.64;26.44
69589;SHT31;56792;50.644;17.984;2023-02-28T09:47:58;21.09;24.12
69589;SHT31;56792;50.644;17.984;2023-02-28T09:50:39;21.59;23.92
69589;SHT31;56792;50.644;17.984;2023-02-28T09:53:18;22.06;24.52
69589;SHT31;56792;50.644;17.984;2023-02-28T09:56:01;22.79;24.14
69589;SHT31;56792;50.644;17.984;2023-02-28T09:58:40;23.20;22.00
69589;SHT31;56792;50.644;17.984;2023-02-28T10:01:21;23.15;21.60
69589;SHT31;56792;50.644;17.984;2023-02-28T10:04:05;23.33;20.18
69589;SHT31;56792;50.644;17.984;2023-02-28T10:06:54;23.60;22.02
69589;SHT31;56792;50.644;17.984;2023-02-28T10:09:29;24.29;20.66
69589;SHT31;56792;50.644;17.984;2023-02-28T10:12:04;24.41;19.61
69589;SHT31;56792;50.644;17.984;2023-02-28T10:14:40;24.50;20.72
69589;SHT31;56792;50.644;17.984;2023-02-28T10:17:21;25.10;20.09
69589;SHT31;56792;50.644;17.984;2023-02-28T10:20:00;25.48;19.82
69589;SHT31;56792;50.644;17.984;2023-02-28T10:22:42;25.54;18.07
69589;SHT31;56792;50.644;17.984;2023-02-28T10:25:26;25.25;18.15
69589;SHT31;56792;50.644;17.984;2023-02-28T10:28:00;25.25;18.66
69589;SHT31;56792;50.644;17.984;2023-02-28T10:30:41;25.68;18.56
69589;SHT31;56792;50.644;17.984;2023-02-28T10:33:21;25.91;17.69
69589;SHT31;56792;50.644;17.984;2023-02-28T10:35:58;26.00;18.14
69589;SHT31;56792;50.644;17.984;2023-02-28T10:38:34;26.45;17.92
69589;SHT31;56792;50.644;17.984;2023-02-28T10:41:09;26.35;16.85
69589;SHT31;56792;50.644;17.984;2023-02-28T10:43:43;25.95;17.22
69589;SHT31;56792;50.644;17.984;2023-02-28T10:46:16;25.05;16.92
69589;SHT31;56792;50.644;17.984;2023-02-28T10:49:02;24.29;17.13
69589;SHT31;56792;50.644;17.984;2023-02-28T10:51:42;24.60;17.88
69589;SHT31;56792;50.644;17.984;2023-02-28T10:54:27;25.05;16.87
69589;SHT31;56792;50.644;17.984;2023-02-28T10:57:14;25.26;17.44
69589;SHT31;56792;50.644;17.984;2023-02-28T10:59:51;25.70;17.44
69589;SHT31;56792;50.644;17.984;2023-02-28T11:02:44;26.21;16.98
69589;SHT31;56792;50.644;17.984;2023-02-28T11:05:27;26.54;17.26
69589;SHT31;56792;50.644;17.984;2023-02-28T11:08:04;27.08;17.40
69589;SHT31;56792;50.644;17.984;2023-02-28T11:10:45;27.20;16.33
69589;SHT31;56792;50.644;17.984;2023-02-28T11:13:26;27.22;16.86
69589;SHT31;56792;50.644;17.984;2023-02-28T11:16:04;27.33;16.38
69589;SHT31;56792;50.644;17.984;2023-02-28T11:18:40;27.34;16.27
69589;SHT31;56792;50.644;17.984;2023-02-28T11:21:23;27.01;15.85
69589;SHT31;56792;50.644;17.984;2023-02-28T11:24:02;26.98;15.88
69589;SHT31;56792;50.644;17.984;2023-02-28T11:26:48;26.48;15.50
69589;SHT31;56792;50.644;17.984;2023-02-28T11:29:21;26.29;16.23
69589;SHT31;56792;50.644;17.984;2023-02-28T11:35:01;27.36;16.27
69589;SHT31;56792;50.644;17.984;2023-02-28T11:37:49;27.03;15.43
69589;SHT31;56792;50.644;17.984;2023-02-28T11:40:24;26.52;15.56
69589;SHT31;56792;50.644;17.984;2023-02-28T11:43:20;26.75;16.47
69589;SHT31;56792;50.644;17.984;2023-02-28T11:46:09;27.05;15.85
69589;SHT31;56792;50.644;17.984;2023-02-28T11:49:01;26.96;15.97
69589;SHT31;56792;50.644;17.984;2023-02-28T11:51:50;26.50;15.71
69589;SHT31;56792;50.644;17.984;2023-02-28T11:57:49;27.57;16.70
69589;SHT31;56792;50.644;17.984;2023-02-28T12:03:51;28.38;16.79
69589;SHT31;56792;50.644;17.984;2023-02-28T12:06:45;28.51;15.99
69589;SHT31;56792;50.644;17.984;2023-02-28T12:09:36;28.60;16.27
69589;SHT31;56792;50.644;17.984;2023-02-28T12:12:22;28.67;16.37
69589;SHT31;56792;50.644;17.984;2023-02-28T12:15:20;28.52;16.00
69589;SHT31;56792;50.644;17.984;2023-02-28T12:18:10;28.14;15.77
69589;SHT31;56792;50.644;17.984;2023-02-28T12:21:00;27.20;15.48
69589;SHT31;56792;50.644;17.984;2023-02-28T12:26:43;23.97;16.93
69589;SHT31;56792;50.644;17.984;2023-02-28T12:29:17;22.91;17.36
69589;SHT31;56792;50.644;17.984;2023-02-28T12:31:56;21.67;18.17
69589;SHT31;56792;50.644;17.984;2023-02-28T12:34:38;20.34;18.56
69589;SHT31;56792;50.644;17.984;2023-02-28T12:37:19;19.18;19.31
69589;SHT31;56792;50.644;17.984;2023-02-28T12:39:59;18.83;20.70
69589;SHT31;56792;50.644;17.984;2023-02-28T12:42:40;18.90;21.04
69589;SHT31;56792;50.644;17.984;2023-02-28T12:45:18;19.28;20.80
69589;SHT31;56792;50.644;17.984;2023-02-28T12:47:57;20.16;20.39
69589;SHT31;56792;50.644;17.984;2023-02-28T12:50:34;21.06;20.46
69589;SHT31;56792;50.644;17.984;2023-02-28T12:53:08;21.83;20.34
69589;SHT31;56792;50.644;17.984;2023-02-28T12:55:48;22.62;19.56
69589;SHT31;56792;50.644;17.984;2023-02-28T12:58:33;22.97;18.89
69589;SHT31;56792;50.644;17.984;2023-02-28T13:07:52;22.75;18.95
69589;SHT31;56792;50.644;17.984;2023-02-28T13:10:42;22.83;19.43
69589;SHT31;56792;50.644;17.984;2023-02-28T13:13:22;22.83;19.18
69589;SHT31;56792;50.644;17.984;2023-02-28T13:16:04;22.49;19.33
69589;SHT31;56792;50.644;17.984;2023-02-28T13:18:39;22.35;18.40
69589;SHT31;56792;50.644;17.984;2023-02-28T13:21:23;22.55;18.66
69589;SHT31;56792;50.644;17.984;2023-02-28T13:24:02;23.13;18.57
69589;SHT31;56792;50.644;17.984;2023-02-28T13:30:00;24.79;17.72
69589;SHT31;56792;50.644;17.984;2023-02-28T13:33:23;25.47;17.73
69589;SHT31;56792;50.644;17.984;2023-02-28T13:38:58;26.48;17.28
69589;SHT31;56792;50.644;17.984;2023-02-28T13:41:51;26.53;17.04
69589;SHT31;56792;50.644;17.984;2023-02-28T13:44:25;26.61;17.02
69589;SHT31;56792;50.644;17.984;2023-02-28T13:56:33;26.79;16.52
69589;SHT31;56792;50.644;17.984;2023-02-28T13:59:19;26.79;16.42
69589;SHT31;56792;50.644;17.984;2023-02-28T14:02:08;26.93;16.89
69589;SHT31;56792;50.644;17.984;2023-02-28T14:05:06;27.19;16.70
69589;SHT31;56792;50.644;17.984;2023-02-28T14:07:48;27.28;16.49
69589;SHT31;56792;50.644;17.984;2023-02-28T14:10:25;27.26;16.56
69589;SHT31;56792;50.644;17.984;2023-02-28T14:13:02;27.12;16.35
69589;SHT31;56792;50.644;17.984;2023-02-28T14:16:04;27.15;16.51
69589;SHT31;56792;50.644;17.984;2023-02-28T14:18:39;27.02;16.50
69589;SHT31;56792;50.644;17.984;2023-02-28T14:21:24;26.76;16.57
69589;SHT31;56792;50.644;17.984;2023-02-28T14:24:07;26.37;16.44
69589;SHT31;56792;50.644;17.984;2023-02-28T14:27:11;26.07;16.80
69589;SHT31;56792;50.644;17.984;2023-02-28T14:33:34;22.07;17.71
69589;SHT31;56792;50.644;17.984;2023-02-28T14:36:42;19.86;19.67
69589;SHT31;56792;50.644;17.984;2023-02-28T14:39:18;18.66;20.39
69589;SHT31;56792;50.644;17.984;2023-02-28T14:41:54;17.65;21.35
69589;SHT31;56792;50.644;17.984;2023-02-28T14:44:31;16.83;22.06
69589;SHT31;56792;50.644;17.984;2023-02-28T14:47:11;16.07;22.89
69589;SHT31;56792;50.644;17.984;2023-02-28T14:49:47;15.40;23.60
69589;SHT31;56792;50.644;17.984;2023-02-28T14:52:23;14.85;24.11
69589;SHT31;56792;50.644;17.984;2023-02-28T14:54:58;14.36;24.54
69589;SHT31;56792;50.644;17.984;2023-02-28T14:57:41;13.87;25.06
69589;SHT31;56792;50.644;17.984;2023-02-28T15:00:23;13.45;25.79
69589;SHT31;56792;50.644;17.984;2023-02-28T15:03:13;13.10;26.11
69589;SHT31;56792;50.644;17.984;2023-02-28T15:05:54;12.69;26.50
69589;SHT31;56792;50.644;17.984;2023-02-28T15:08:30;12.27;26.93
69589;SHT31;56792;50.644;17.984;2023-02-28T15:11:03;11.93;27.30
69589;SHT31;56792;50.644;17.984;2023-02-28T15:13:41;11.61;27.72
69589;SHT31;56792;50.644;17.984;2023-02-28T15:16:17;11.36;28.15
69589;SHT31;56792;50.644;17.984;2023-02-28T15:18:54;11.10;28.76
69589;SHT31;56792;50.644;17.984;2023-02-28T15:21:30;10.76;29.32
69589;SHT31;56792;50.644;17.984;2023-02-28T15:24:09;10.50;29.27
69589;SHT31;56792;50.644;17.984;2023-02-28T15:26:53;10.25;29.76
69589;SHT31;56792;50.644;17.984;2023-02-28T15:29:34;10.06;30.18
69589;SHT31;56792;50.644;17.984;2023-02-28T15:32:27;9.84;30.65
69589;SHT31;56792;50.644;17.984;2023-02-28T15:38:02;9.31;30.98
69589;SHT31;56792;50.644;17.984;2023-02-28T15:40:49;9.05;31.62
69589;SHT31;56792;50.644;17.984;2023-02-28T15:43:25;8.83;31.98
69589;SHT31;56792;50.644;17.984;2023-02-28T15:46:00;8.59;32.82
69589;SHT31;56792;50.644;17.984;2023-02-28T15:48:37;8.34;32.78
69589;SHT31;56792;50.644;17.984;2023-02-28T15:51:22;8.06;33.14
69589;SHT31;56792;50.644;17.984;2023-02-28T15:54:01;7.77;33.51
69589;SHT31;56792;50.644;17.984;2023-02-28T15:56:38;7.57;33.84
69589;SHT31;56792;50.644;17.984;2023-02-28T15:59:15;7.35;34.35
69589;SHT31;56792;50.644;17.984;2023-02-28T16:02:04;7.16;35.03
69589;SHT31;56792;50.644;17.984;2023-02-28T16:04:57;6.95;35.50
69589;SHT31;56792;50.644;17.984;2023-02-28T16:07:47;6.72;35.93
69589;SHT31;56792;50.644;17.984;2023-02-28T16:10:20;6.54;36.22
69589;SHT31;56792;50.644;17.984;2023-02-28T16:12:56;6.36;36.64
69589;SHT31;56792;50.644;17.984;2023-02-28T16:15:34;6.21;36.83
69589;SHT31;56792;50.644;17.984;2023-02-28T16:18:11;5.99;38.69
69589;SHT31;56792;50.644;17.984;2023-02-28T16:20:44;5.75;39.37
69589;SHT31;56792;50.644;17.984;2023-02-28T16:23:17;5.56;39.48
69589;SHT31;56792;50.644;17.984;2023-02-28T16:25:49;5.41;40.15
69589;SHT31;56792;50.644;17.984;2023-02-28T16:28:23;5.25;40.76
69589;SHT31;56792;50.644;17.984;2023-02-28T16:31:02;5.07;41.57
69589;SHT31;56792;50.644;17.984;2023-02-28T16:33:43;4.89;41.46
69589;SHT31;56792;50.644;17.984;2023-02-28T16:36:17;4.70;40.66
69589;SHT31;56792;50.644;17.984;2023-02-28T16:38:53;4.52;41.08
69589;SHT31;56792;50.644;17.984;2023-02-28T16:41:27;4.35;41.26
69589;SHT31;56792;50.644;17.984;2023-02-28T16:44:02;4.18;41.92
69589;SHT31;56792;50.644;17.984;2023-02-28T16:46:44;4.02;41.89
69589;SHT31;56792;50.644;17.984;2023-02-28T16:49:21;3.87;42.48
69589;SHT31;56792;50.644;17.984;2023-02-28T16:51:54;3.73;42.93
69589;SHT31;56792;50.644;17.984;2023-02-28T16:54:27;3.59;43.57
69589;SHT31;56792;50.644;17.984;2023-02-28T16:57:01;3.43;43.81
69589;SHT31;56792;50.644;17.984;2023-02-28T16:59:44;3.25;43.75
69589;SHT31;56792;50.644;17.984;2023-02-28T17:02:20;3.10;44.13
69589;SHT31;56792;50.644;17.984;2023-02-28T17:04:53;2.96;44.59
69589;SHT31;56792;50.644;17.984;2023-02-28T17:07:36;2.83;44.94
69589;SHT31;56792;50.644;17.984;2023-02-28T17:10:13;2.71;45.40
69589;SHT31;56792;50.644;17.984;2023-02-28T17:12:56;2.59;45.77
69589;SHT31;56792;50.644;17.984;2023-02-28T17:15:36;2.46;46.08